Time;durP1;ratioP1;P1;durP2;ratioP2;P2;SDS_P1;SDS_P2;PMS_P1;PMS_P2;Temp;Humidity;BMP_temperature;BMP_pressure;BME280_temperature;BME280_humidity;BME280_pressure;Samples;Min_cycle;Max_cycle;Signal;HPM_P1;HPM_P2
2021/06/26 00:00:29;;;;;;;4.30;2.05;;;22.50;62.90;;;;;;3149846;28;20112;-81
2021/06/26 00:02:00;;;;;;;3.47;2.05;;;22.60;63.00;;;;;;3149766;28;20488;-81
2021/06/26 00:03:33;;;;;;;2.45;2.15;;;22.60;63.00;;;;;;3156963;28;20044;-81
2021/06/26 00:05:05;;;;;;;2.42;1.90;;;22.60;62.90;;;;;;3163033;28;20044;-80
2021/06/26 00:06:38;;;;;;;2.20;2.00;;;22.60;63.10;;;;;;3162241;28;20520;-81
2021/06/26 00:08:10;;;;;;;3.15;2.20;;;22.50;62.90;;;;;;3162511;28;20649;-80
2021/06/26 00:09:42;;;;;;;3.35;2.10;;;22.50;63.20;;;;;;3162474;28;20059;-81
2021/06/26 00:11:13;;;;;;;3.13;2.25;;;22.50;63.00;;;;;;3162583;28;20055;-81
2021/06/26 00:12:45;;;;;;;5.05;2.03;;;22.50;63.30;;;;;;3162773;28;20049;-81
2021/06/26 00:14:17;;;;;;;3.60;2.22;;;22.50;63.50;;;;;;3162253;28;20076;-83
2021/06/26 00:15:49;;;;;;;12.57;2.40;;;22.40;63.50;;;;;;3161861;28;20125;-82
2021/06/26 00:17:20;;;;;;;3.75;2.20;;;22.50;63.70;;;;;;3161990;28;20052;-81
2021/06/26 00:18:52;;;;;;;2.22;2.03;;;22.50;64.50;;;;;;3162451;28;20055;-81
2021/06/26 00:20:23;;;;;;;2.70;2.40;;;22.50;63.90;;;;;;3161639;28;20506;-82
2021/06/26 00:21:54;;;;;;;3.13;2.35;;;22.50;63.90;;;;;;3159906;28;20044;-81
2021/06/26 00:23:26;;;;;;;2.53;1.88;;;22.50;64.10;;;;;;3160036;28;20047;-82
2021/06/26 00:24:57;;;;;;;3.70;2.10;;;22.50;63.70;;;;;;3160132;28;20048;-81
2021/06/26 00:26:29;;;;;;;2.83;2.13;;;22.50;64.00;;;;;;3159732;28;20055;-80
2021/06/26 00:28:00;;;;;;;3.03;2.25;;;22.50;64.00;;;;;;3159824;28;20430;-82
2021/06/26 00:29:33;;;;;;;3.03;2.10;;;22.50;63.80;;;;;;3159765;28;20043;-81
2021/06/26 00:31:04;;;;;;;;;;;22.40;63.80;;;;;;3160801;28;20075;-81
2021/06/26 00:32:35;;;;;;;2.05;1.85;;;22.40;64.00;;;;;;3160815;28;19921;-81
2021/06/26 00:34:07;;;;;;;3.85;2.00;;;22.40;63.90;;;;;;3160888;28;20051;-81
2021/06/26 00:35:39;;;;;;;3.45;2.30;;;22.40;63.90;;;;;;3160343;28;20048;-81
2021/06/26 00:37:09;;;;;;;2.35;2.15;;;22.40;63.90;;;;;;3160919;28;20051;-82
2021/06/26 00:38:41;;;;;;;3.35;2.25;;;22.40;63.90;;;;;;3160652;28;20051;-81
2021/06/26 00:40:13;;;;;;;2.50;2.15;;;22.40;63.80;;;;;;3160815;28;20528;-80
2021/06/26 00:41:44;;;;;;;3.80;2.20;;;22.40;63.90;;;;;;3161062;28;20048;-81
2021/06/26 00:43:17;;;;;;;4.32;2.42;;;22.40;64.00;;;;;;3160564;28;20760;-80
2021/06/26 00:44:50;;;;;;;4.05;2.40;;;22.40;64.00;;;;;;3160897;28;20154;-81
2021/06/26 00:46:21;;;;;;;;;;;22.40;63.80;;;;;;3160907;28;20052;-81
2021/06/26 00:47:52;;;;;;;4.25;2.10;;;22.40;63.70;;;;;;3160210;28;19959;-81
2021/06/26 00:49:24;;;;;;;2.30;2.10;;;22.40;63.70;;;;;;3160290;28;20044;-81
2021/06/26 00:50:55;;;;;;;4.60;2.28;;;22.40;63.60;;;;;;3160239;28;20048;-81
2021/06/26 00:52:27;;;;;;;4.40;2.20;;;22.40;63.50;;;;;;3160530;28;20075;-81
2021/06/26 00:53:59;;;;;;;2.33;2.13;;;22.40;63.50;;;;;;3160557;28;20052;-81
2021/06/26 00:55:29;;;;;;;3.25;2.15;;;22.40;63.50;;;;;;3160772;28;20514;-80
2021/06/26 00:57:01;;;;;;;3.47;2.00;;;22.40;63.50;;;;;;3162862;28;20040;-80
2021/06/26 00:58:32;;;;;;;2.30;2.10;;;22.40;63.20;;;;;;3162866;28;20082;-80
2021/06/26 01:00:05;;;;;;;2.20;2.00;;;22.40;63.30;;;;;;3163000;28;20079;-81
2021/06/26 01:01:37;;;;;;;3.70;2.22;;;22.40;63.30;;;;;;3162834;28;20490;-80
2021/06/26 01:03:09;;;;;;;3.70;2.10;;;22.40;63.30;;;;;;3163039;28;20048;-80
2021/06/26 01:04:41;;;;;;;5.22;2.53;;;22.40;63.30;;;;;;3163166;28;20052;-80
2021/06/26 01:06:13;;;;;;;2.40;2.20;;;22.40;63.40;;;;;;3162421;28;20083;-81
2021/06/26 01:07:46;;;;;;;2.50;2.20;;;22.40;63.30;;;;;;3162775;28;20518;-81
2021/06/26 01:09:17;;;;;;;2.10;2.00;;;22.40;63.20;;;;;;3163166;28;20059;-80
2021/06/26 01:10:48;;;;;;;2.45;2.10;;;22.40;63.30;;;;;;3162943;28;20524;-81
2021/06/26 01:12:19;;;;;;;3.28;2.13;;;22.40;63.20;;;;;;3162345;28;20090;-80
2021/06/26 01:13:51;;;;;;;2.28;2.08;;;22.40;63.10;;;;;;3163120;28;20052;-80
2021/06/26 01:15:24;;;;;;;2.45;2.13;;;22.40;63.10;;;;;;3162454;28;20502;-80
2021/06/26 01:16:55;;;;;;;2.47;2.13;;;22.40;63.10;;;;;;3162629;28;20044;-80
2021/06/26 01:18:27;;;;;;;2.63;2.20;;;22.40;63.10;;;;;;3162680;28;20418;-80
2021/06/26 01:20:00;;;;;;;2.70;2.50;;;22.40;63.10;;;;;;3162477;28;20063;-81
2021/06/26 01:21:35;;;;;;;3.13;2.25;;;22.40;63.10;;;;;;3162591;28;20173;-81
2021/06/26 01:23:08;;;;;;;2.88;2.40;;;22.40;63.00;;;;;;3162672;28;20044;-81
2021/06/26 01:24:38;;;;;;;2.60;2.20;;;22.40;63.00;;;;;;3162574;28;20470;-80
2021/06/26 01:26:10;;;;;;;2.30;2.10;;;22.40;63.00;;;;;;3162420;28;20048;-80
2021/06/26 01:27:41;;;;;;;2.38;2.10;;;22.40;63.00;;;;;;3162560;28;20048;-81
2021/06/26 01:29:12;;;;;;;2.58;2.30;;;22.40;63.00;;;;;;3162545;28;20040;-81
2021/06/26 01:30:43;;;;;;;2.47;2.20;;;22.40;62.90;;;;;;3162347;28;20048;-81
2021/06/26 01:32:15;;;;;;;3.63;2.22;;;22.40;62.80;;;;;;3162637;28;20051;-81
2021/06/26 01:33:46;;;;;;;4.47;2.33;;;22.40;62.90;;;;;;3162743;28;20047;-80
2021/06/26 01:35:17;;;;;;;8.68;2.40;;;22.40;62.80;;;;;;3163039;28;20062;-79
2021/06/26 01:36:49;;;;;;;5.47;2.15;;;22.40;63.10;;;;;;3162295;28;20044;-80
2021/06/26 01:38:22;;;;;;;6.50;2.10;;;22.40;63.00;;;;;;3162068;28;20552;-80
2021/06/26 01:39:52;;;;;;;;;;;22.40;63.00;;;;;;3162993;28;20055;-80
2021/06/26 01:41:24;;;;;;;2.40;2.13;;;22.40;63.00;;;;;;3162090;28;19916;-81
2021/06/26 01:42:55;;;;;;;3.42;2.20;;;22.40;63.10;;;;;;3161736;28;20098;-81
2021/06/26 01:44:26;;;;;;;4.18;2.35;;;22.40;63.10;;;;;;3161877;28;20040;-81
2021/06/26 01:45:58;;;;;;;3.25;2.10;;;22.40;63.40;;;;;;3161616;28;20059;-82
2021/06/26 01:47:30;;;;;;;2.42;2.22;;;22.40;63.40;;;;;;3175614;22;20047;-79
2021/06/26 01:49:07;;;;;;;3.95;2.33;;;22.40;63.50;;;;;;3152771;28;20079;-79
2021/06/26 01:50:39;;;;;;;3.42;2.28;;;22.40;63.50;;;;;;3161180;28;20059;-81
2021/06/26 01:52:09;;;;;;;3.22;2.40;;;22.40;63.50;;;;;;3162006;28;20048;-79
2021/06/26 01:53:43;;;;;;;2.40;2.03;;;22.40;63.50;;;;;;3162158;28;20048;-80
2021/06/26 01:55:14;;;;;;;2.65;2.22;;;22.40;63.50;;;;;;3162462;28;20052;-81
2021/06/26 01:56:46;;;;;;;2.45;2.22;;;22.30;63.60;;;;;;3162290;28;20047;-79
2021/06/26 01:58:17;;;;;;;4.22;2.47;;;22.30;63.50;;;;;;3149543;28;20056;-79
2021/06/26 01:59:48;;;;;;;3.30;2.30;;;22.40;63.50;;;;;;3149526;28;20048;-79
2021/06/26 02:01:20;;;;;;;2.60;2.40;;;22.30;63.60;;;;;;3149416;28;20071;-79
2021/06/26 02:02:51;;;;;;;4.50;2.55;;;22.40;63.60;;;;;;3149325;28;20041;-79
2021/06/26 02:04:22;;;;;;;5.72;2.70;;;22.30;63.60;;;;;;3140456;28;20072;-79
2021/06/26 02:05:54;;;;;;;2.80;2.08;;;22.40;63.40;;;;;;3137126;28;20403;-81
2021/06/26 02:07:24;;;;;;;2.70;2.30;;;22.40;63.50;;;;;;3136529;28;20048;-79
2021/06/26 02:08:57;;;;;;;2.95;2.30;;;22.40;63.50;;;;;;3136699;28;20041;-80
2021/06/26 02:10:29;;;;;;;;;;;22.40;63.50;;;;;;3137881;28;20491;-79
2021/06/26 02:12:00;;;;;;;5.15;2.10;;;22.40;63.50;;;;;;3137116;28;20324;-79
2021/06/26 02:13:31;;;;;;;4.15;2.38;;;22.40;63.50;;;;;;3136939;28;20077;-79
2021/06/26 02:15:03;;;;;;;3.78;2.22;;;22.30;63.50;;;;;;3137196;28;20048;-79
2021/06/26 02:16:34;;;;;;;2.50;2.30;;;22.30;63.40;;;;;;3137229;28;20053;-79
2021/06/26 02:18:06;;;;;;;2.25;2.03;;;22.40;63.50;;;;;;3136983;28;20049;-79
2021/06/26 02:19:37;;;;;;;3.92;2.33;;;22.30;63.50;;;;;;3136985;28;20525;-80
2021/06/26 02:21:09;;;;;;;4.63;2.60;;;22.30;63.50;;;;;;3137796;28;20052;-80
2021/06/26 02:22:42;;;;;;;6.00;2.45;;;22.40;63.60;;;;;;3136935;28;20089;-80
2021/06/26 02:24:15;;;;;;;10.88;2.80;;;22.40;63.70;;;;;;3136893;28;20140;-79
2021/06/26 02:25:46;;;;;;;;;;;22.40;64.20;;;;;;3137805;28;20083;-79
2021/06/26 02:27:18;;;;;;;7.53;2.70;;;22.40;64.00;;;;;;3137529;28;19925;-79
2021/06/26 02:28:49;;;;;;;4.65;2.30;;;22.40;64.10;;;;;;3137375;28;20072;-79
2021/06/26 02:30:21;;;;;;;5.15;2.45;;;22.40;64.00;;;;;;3137934;28;20052;-79
2021/06/26 02:31:53;;;;;;;4.85;2.30;;;22.40;64.00;;;;;;3137373;28;20092;-79
2021/06/26 02:33:24;;;;;;;3.08;2.78;;;22.40;64.00;;;;;;3137331;28;20084;-79
2021/06/26 02:34:55;;;;;;;3.80;2.40;;;22.40;63.90;;;;;;3137192;28;20053;-79
2021/06/26 02:36:27;;;;;;;2.63;2.42;;;22.40;63.90;;;;;;3137580;28;20049;-79
2021/06/26 02:37:58;;;;;;;8.98;2.40;;;22.40;63.90;;;;;;3137104;28;20064;-79
2021/06/26 02:39:30;;;;;;;2.55;2.28;;;22.40;63.90;;;;;;3137438;28;20080;-79
2021/06/26 02:41:02;;;;;;;5.28;2.60;;;22.40;63.70;;;;;;3137430;28;20075;-79
2021/06/26 02:42:33;;;;;;;4.15;2.40;;;22.40;63.70;;;;;;3137551;28;20084;-79
2021/06/26 02:44:05;;;;;;;5.05;2.40;;;22.40;63.70;;;;;;3136543;28;20045;-79
2021/06/26 02:45:37;;;;;;;3.15;2.63;;;22.40;63.50;;;;;;3136171;28;20052;-79
2021/06/26 02:47:08;;;;;;;3.80;2.15;;;22.40;63.60;;;;;;3135970;28;20099;-78
2021/06/26 02:48:39;;;;;;;2.50;2.30;;;22.40;63.50;;;;;;3136222;28;20103;-79
2021/06/26 02:50:12;;;;;;;3.25;2.70;;;22.40;63.50;;;;;;3136384;28;20076;-79
2021/06/26 02:51:44;;;;;;;;;;;22.40;63.70;;;;;;3136982;28;20076;-79
2021/06/26 02:53:15;;;;;;;2.50;2.28;;;22.40;63.70;;;;;;3136124;28;20351;-80
2021/06/26 02:54:49;;;;;;;3.97;2.50;;;22.40;63.60;;;;;;3136160;28;20106;-79
2021/06/26 02:56:21;;;;;;;2.63;2.40;;;22.40;63.50;;;;;;3136165;28;20149;-81
2021/06/26 02:57:52;;;;;;;3.75;2.35;;;22.40;63.50;;;;;;3136175;28;20432;-79
2021/06/26 02:59:24;;;;;;;3.30;2.28;;;22.40;63.50;;;;;;3136663;28;20555;-78
2021/06/26 03:00:55;;;;;;;13.77;2.85;;;22.40;63.40;;;;;;3136601;28;20052;-79
2021/06/26 03:02:28;;;;;;;13.40;2.75;;;22.40;63.40;;;;;;3136384;28;20052;-80
2021/06/26 03:03:58;;;;;;;4.72;2.53;;;22.40;63.40;;;;;;3136199;28;20095;-79
2021/06/26 03:05:30;;;;;;;5.28;2.70;;;22.40;63.40;;;;;;3143478;28;20567;-79
2021/06/26 03:07:01;;;;;;;4.43;2.38;;;22.40;63.40;;;;;;3144672;28;20064;-80
2021/06/26 03:08:33;;;;;;;2.92;2.25;;;22.40;63.40;;;;;;3136599;28;20076;-79
2021/06/26 03:10:07;;;;;;;2.85;2.60;;;22.40;63.40;;;;;;3136545;28;20052;-79
2021/06/26 03:11:38;;;;;;;4.68;2.97;;;22.40;63.40;;;;;;3136247;28;20084;-79
2021/06/26 03:13:09;;;;;;;4.80;2.38;;;22.40;63.30;;;;;;3135892;28;20053;-79
2021/06/26 03:14:41;;;;;;;7.25;2.63;;;22.40;63.50;;;;;;3136002;28;20048;-79
2021/06/26 03:16:13;;;;;;;3.17;2.40;;;22.40;63.50;;;;;;3136151;28;20491;-79
2021/06/26 03:17:44;;;;;;;3.72;2.58;;;22.40;63.50;;;;;;3136034;28;20440;-78
2021/06/26 03:19:16;;;;;;;5.38;2.45;;;22.40;63.50;;;;;;3136171;28;20092;-79
2021/06/26 03:20:47;;;;;;;2.83;2.50;;;22.40;63.60;;;;;;3136332;28;20081;-79
2021/06/26 03:22:19;;;;;;;3.83;2.65;;;22.40;64.30;;;;;;3136784;28;20055;-79
2021/06/26 03:23:50;;;;;;;5.28;2.30;;;22.40;63.60;;;;;;3136439;28;20083;-78
2021/06/26 03:25:23;;;;;;;4.35;2.47;;;22.40;63.60;;;;;;3137335;28;20525;-79
2021/06/26 03:26:55;;;;;;;;;;;22.40;63.60;;;;;;3137373;28;20059;-78
2021/06/26 03:28:27;;;;;;;2.70;2.47;;;22.40;63.70;;;;;;3136914;28;20019;-79
2021/06/26 03:29:58;;;;;;;4.15;2.58;;;22.40;63.70;;;;;;3136348;28;20072;-78
2021/06/26 03:31:30;;;;;;;3.83;2.42;;;22.40;63.70;;;;;;3136556;28;20533;-78
2021/06/26 03:33:02;;;;;;;5.53;2.60;;;22.40;63.60;;;;;;3136699;28;20056;-79
2021/06/26 03:34:33;;;;;;;5.78;2.60;;;22.40;63.60;;;;;;3136648;28;20076;-79
2021/06/26 03:36:05;;;;;;;4.15;2.50;;;22.40;63.70;;;;;;3136802;28;20077;-79
2021/06/26 03:37:37;;;;;;;3.57;2.50;;;22.30;63.70;;;;;;3141961;28;20080;-79
2021/06/26 03:39:08;;;;;;;2.75;2.40;;;22.40;63.70;;;;;;3148668;28;20098;-79
2021/06/26 03:40:41;;;;;;;3.88;2.72;;;22.30;63.70;;;;;;3149243;28;20418;-78
2021/06/26 03:42:12;;;;;;;;;;;22.30;63.60;;;;;;3148961;28;20045;-79
2021/06/26 03:43:43;;;;;;;4.13;2.75;;;22.40;63.70;;;;;;3148925;28;20378;-79
2021/06/26 03:45:15;;;;;;;5.32;2.35;;;22.40;63.70;;;;;;3148943;28;20056;-78
2021/06/26 03:46:46;;;;;;;3.63;2.20;;;22.40;63.70;;;;;;3148745;28;20072;-79
2021/06/26 03:48:17;;;;;;;3.42;2.60;;;22.40;63.70;;;;;;3148612;28;20526;-79
2021/06/26 03:49:49;;;;;;;2.97;2.67;;;22.40;63.70;;;;;;3148876;28;20048;-79
2021/06/26 03:51:20;;;;;;;4.03;2.55;;;22.40;63.70;;;;;;3148947;28;20052;-79
2021/06/26 03:52:52;;;;;;;2.58;2.38;;;22.40;63.70;;;;;;3148698;28;20055;-79
2021/06/26 03:54:23;;;;;;;5.03;2.70;;;22.40;63.70;;;;;;3146675;28;20053;-79
2021/06/26 03:55:56;;;;;;;9.38;3.10;;;22.40;63.70;;;;;;3148773;28;20072;-79
2021/06/26 03:57:27;;;;;;;;;;;22.40;64.30;;;;;;3149380;28;20080;-79
2021/06/26 03:59:00;;;;;;;3.75;2.60;;;22.40;64.20;;;;;;3148629;28;19929;-79
2021/06/26 04:00:31;;;;;;;4.55;2.70;;;22.40;63.90;;;;;;3148614;28;20052;-80
2021/06/26 04:02:06;;;;;;;12.07;2.60;;;22.40;64.00;;;;;;3148801;28;20083;-80
2021/06/26 04:03:38;;;;;;;5.25;2.70;;;22.40;63.90;;;;;;3149127;28;20051;-79
2021/06/26 04:05:09;;;;;;;3.70;2.58;;;22.30;64.00;;;;;;3148728;28;20076;-79
2021/06/26 04:06:41;;;;;;;6.97;2.65;;;22.40;64.00;;;;;;3148572;28;20044;-79
2021/06/26 04:08:12;;;;;;;5.60;2.70;;;22.30;63.90;;;;;;3148706;28;20080;-79
2021/06/26 04:09:44;;;;;;;5.13;2.63;;;22.40;64.00;;;;;;3148737;28;20048;-79
2021/06/26 04:11:17;;;;;;;4.53;2.40;;;22.30;63.90;;;;;;3148602;28;20044;-79
2021/06/26 04:12:48;;;;;;;;;;;22.30;64.00;;;;;;3149299;28;20048;-79
2021/06/26 04:14:19;;;;;;;6.28;2.70;;;22.30;64.00;;;;;;3149249;28;19974;-79
2021/06/26 04:15:51;;;;;;;3.45;2.50;;;22.30;64.00;;;;;;3149546;28;20409;-79
2021/06/26 04:17:22;;;;;;;4.57;2.40;;;22.30;64.00;;;;;;3149183;28;20052;-79
2021/06/26 04:18:54;;;;;;;3.47;2.67;;;22.30;64.10;;;;;;3149324;28;20060;-78
2021/06/26 04:20:25;;;;;;;5.00;2.42;;;22.30;64.10;;;;;;3149831;28;20506;-79
2021/06/26 04:21:56;;;;;;;5.18;3.00;;;22.30;64.10;;;;;;3148822;28;20484;-79
2021/06/26 04:23:28;;;;;;;6.72;2.78;;;22.30;64.10;;;;;;3149342;28;20037;-79
2021/06/26 04:24:58;;;;;;;5.53;2.33;;;22.30;64.20;;;;;;3149249;28;20072;-79
2021/06/26 04:26:31;;;;;;;2.63;2.42;;;22.30;64.20;;;;;;3148795;28;20056;-79
2021/06/26 04:28:06;;;;;;;;;;;22.30;64.20;;;;;;3148448;28;20138;-79
2021/06/26 04:29:37;;;;;;;3.72;2.78;;;22.30;64.30;;;;;;3148953;28;19930;-78
2021/06/26 04:31:08;;;;;;;3.03;2.60;;;22.30;64.30;;;;;;3149353;28;20518;-79
2021/06/26 04:32:40;;;;;;;4.32;2.58;;;22.30;64.30;;;;;;3150464;28;20111;-80
2021/06/26 04:34:11;;;;;;;5.83;3.07;;;22.30;64.30;;;;;;3150096;28;20102;-79
2021/06/26 04:35:42;;;;;;;5.88;2.85;;;22.30;64.30;;;;;;3150185;28;20779;-78
2021/06/26 04:37:14;;;;;;;6.13;2.75;;;22.30;64.40;;;;;;3152233;28;20052;-79
2021/06/26 04:38:46;;;;;;;5.80;2.78;;;22.30;64.50;;;;;;3150694;28;20434;-79
2021/06/26 04:40:16;;;;;;;4.00;3.00;;;22.30;64.50;;;;;;3150628;28;20080;-79
2021/06/26 04:41:49;;;;;;;14.32;3.38;;;22.30;64.50;;;;;;3150417;28;20048;-79
2021/06/26 04:43:21;;;;;;;;;;;22.30;64.60;;;;;;3150404;28;20041;-80
2021/06/26 04:44:52;;;;;;;5.53;3.17;;;22.30;64.60;;;;;;3138992;28;20294;-79
2021/06/26 04:46:24;;;;;;;11.15;3.50;;;22.30;64.70;;;;;;3137938;28;20078;-79
2021/06/26 04:48:00;;;;;;;10.82;3.17;;;22.30;64.80;;;;;;3137759;28;20049;-79
2021/06/26 04:49:31;;;;;;;10.25;3.55;;;22.30;64.90;;;;;;3137706;28;20115;-79
2021/06/26 04:51:02;;;;;;;6.13;3.33;;;22.30;64.80;;;;;;3138181;28;20049;-79
2021/06/26 04:52:34;;;;;;;4.97;3.38;;;22.40;65.40;;;;;;3150452;28;20419;-80
2021/06/26 04:54:06;;;;;;;4.47;3.08;;;22.30;64.70;;;;;;3150419;28;20410;-79
2021/06/26 04:55:37;;;;;;;5.72;3.58;;;22.30;64.60;;;;;;3150069;28;20088;-79
2021/06/26 04:57:10;;;;;;;3.70;3.38;;;22.30;64.60;;;;;;3150269;28;20091;-79
2021/06/26 04:58:41;;;;;;;;;;;22.30;64.70;;;;;;3150678;28;20072;-78
2021/06/26 05:00:13;;;;;;;8.95;3.63;;;22.30;64.60;;;;;;3150704;28;20382;-79
2021/06/26 05:01:44;;;;;;;11.07;3.40;;;22.30;65.00;;;;;;3148307;28;20076;-79
2021/06/26 05:03:16;;;;;;;8.90;3.53;;;22.30;64.90;;;;;;3150160;28;20048;-79
2021/06/26 05:04:47;;;;;;;11.38;3.65;;;22.30;64.80;;;;;;3150027;28;20517;-79
2021/06/26 05:06:19;;;;;;;12.68;4.20;;;22.30;64.60;;;;;;3149770;28;20087;-80
2021/06/26 05:07:51;;;;;;;8.02;3.40;;;22.40;64.70;;;;;;3149886;28;20052;-80
2021/06/26 05:09:22;;;;;;;11.93;3.50;;;22.40;64.80;;;;;;3147188;28;20097;-79
2021/06/26 05:10:53;;;;;;;4.15;3.13;;;22.30;64.80;;;;;;3141657;28;20052;-81
2021/06/26 05:12:26;;;;;;;8.93;3.33;;;22.30;64.90;;;;;;3148182;28;20048;-81
2021/06/26 05:13:56;;;;;;;;;;;22.30;64.90;;;;;;3151912;28;20052;-80
2021/06/26 05:15:28;;;;;;;3.88;3.17;;;22.30;64.90;;;;;;3151947;28;19927;-79
2021/06/26 05:16:59;;;;;;;6.78;3.00;;;22.30;65.00;;;;;;3152051;28;20049;-79
2021/06/26 05:18:30;;;;;;;6.43;3.20;;;22.30;65.00;;;;;;3150824;28;20501;-78
2021/06/26 05:20:02;;;;;;;6.57;3.38;;;22.30;65.00;;;;;;3152277;28;20052;-80
2021/06/26 05:21:32;;;;;;;3.95;2.92;;;22.30;65.10;;;;;;3152264;28;20044;-78
2021/06/26 05:23:11;;;;;;;8.13;3.30;;;22.30;65.10;;;;;;3151989;28;20055;-79
2021/06/26 05:24:43;;;;;;;7.63;3.15;;;22.30;65.10;;;;;;3151019;28;20040;-78
2021/06/26 05:26:15;;;;;;;3.92;3.10;;;22.30;65.10;;;;;;3152347;28;20135;-78
2021/06/26 05:27:47;;;;;;;4.50;2.90;;;22.30;65.10;;;;;;3151593;28;20086;-79
2021/06/26 05:29:18;;;;;;;8.25;3.08;;;22.30;65.20;;;;;;3151934;28;20053;-80
2021/06/26 05:30:50;;;;;;;3.03;2.75;;;22.20;65.10;;;;;;3151389;28;20052;-78
2021/06/26 05:32:21;;;;;;;4.30;2.95;;;22.20;65.10;;;;;;3141500;28;20057;-77
2021/06/26 05:33:53;;;;;;;5.60;2.70;;;22.20;65.20;;;;;;3139503;28;20517;-80
2021/06/26 05:35:25;;;;;;;3.33;3.03;;;22.20;65.10;;;;;;3138822;28;20511;-79
2021/06/26 05:36:56;;;;;;;5.57;2.80;;;22.20;65.00;;;;;;3138905;28;20049;-79
2021/06/26 05:38:28;;;;;;;3.85;3.17;;;22.20;65.20;;;;;;3139263;28;20511;-79
2021/06/26 05:39:59;;;;;;;3.08;2.78;;;22.20;65.10;;;;;;3139409;28;20049;-80
2021/06/26 05:41:31;;;;;;;4.65;3.15;;;22.20;65.10;;;;;;3138282;28;20546;-81
2021/06/26 05:43:04;;;;;;;3.47;3.00;;;22.20;65.10;;;;;;3137764;28;20065;-79
2021/06/26 05:44:35;;;;;;;5.20;2.88;;;22.20;65.10;;;;;;3138195;28;20052;-80
2021/06/26 05:46:06;;;;;;;3.20;2.90;;;22.20;65.20;;;;;;3145335;28;20052;-79
2021/06/26 05:47:38;;;;;;;4.30;2.78;;;22.20;65.20;;;;;;3151363;28;20498;-78
2021/06/26 05:49:09;;;;;;;4.05;2.80;;;22.30;65.30;;;;;;3151529;28;20048;-81
2021/06/26 05:50:41;;;;;;;5.38;2.92;;;22.20;65.30;;;;;;3151035;28;20083;-79
2021/06/26 05:52:13;;;;;;;6.43;2.90;;;22.20;65.40;;;;;;3151149;28;20158;-78
2021/06/26 05:53:44;;;;;;;3.00;2.70;;;22.20;65.50;;;;;;3150825;28;20044;-79
2021/06/26 05:55:16;;;;;;;3.13;2.80;;;22.20;65.70;;;;;;3151422;28;20048;-79
2021/06/26 05:56:51;;;;;;;6.28;2.85;;;22.20;65.70;;;;;;3151960;28;20049;-79
2021/06/26 05:58:24;;;;;;;4.32;2.80;;;22.20;65.60;;;;;;3151369;28;20049;-78
2021/06/26 05:59:56;;;;;;;3.47;2.90;;;22.20;65.70;;;;;;3152439;28;20053;-78
2021/06/26 06:01:27;;;;;;;4.50;2.97;;;22.20;65.70;;;;;;3151213;28;20525;-79
2021/06/26 06:02:59;;;;;;;3.65;2.50;;;22.20;65.70;;;;;;3143940;28;20061;-78
2021/06/26 06:04:30;;;;;;;3.22;2.60;;;22.20;65.70;;;;;;3140088;28;20048;-79
2021/06/26 06:06:02;;;;;;;3.25;2.70;;;22.20;65.80;;;;;;3138853;28;20057;-78
2021/06/26 06:07:33;;;;;;;2.90;2.60;;;22.20;65.70;;;;;;3139045;28;20077;-78
2021/06/26 06:09:05;;;;;;;4.25;2.90;;;22.20;65.80;;;;;;3138721;28;20072;-80
2021/06/26 06:10:37;;;;;;;2.90;2.40;;;22.20;66.00;;;;;;3137178;28;20053;-78
2021/06/26 06:12:08;;;;;;;6.25;3.10;;;22.20;66.00;;;;;;3137741;28;20356;-78
2021/06/26 06:13:41;;;;;;;5.78;2.92;;;22.20;66.30;;;;;;3138152;28;20049;-78
2021/06/26 06:15:13;;;;;;;;;;;22.30;66.50;;;;;;3137734;28;20084;-78
2021/06/26 06:16:44;;;;;;;6.57;2.90;;;22.20;66.30;;;;;;3137430;28;19921;-78
2021/06/26 06:18:17;;;;;;;4.32;2.90;;;22.20;66.40;;;;;;3137648;28;20080;-79
2021/06/26 06:19:49;;;;;;;7.93;2.90;;;22.30;66.50;;;;;;3149047;28;20110;-78
2021/06/26 06:21:20;;;;;;;3.63;2.60;;;22.30;66.50;;;;;;3149361;28;20103;-76
2021/06/26 06:22:52;;;;;;;5.22;2.70;;;22.30;66.30;;;;;;3148617;28;20503;-78
2021/06/26 06:24:24;;;;;;;5.05;2.70;;;22.30;66.40;;;;;;3148938;28;20086;-79
2021/06/26 06:25:55;;;;;;;5.38;2.60;;;22.30;66.40;;;;;;3148883;28;20094;-78
2021/06/26 06:27:27;;;;;;;6.55;2.90;;;22.30;66.30;;;;;;3149874;28;20057;-78
2021/06/26 06:29:00;;;;;;;4.68;2.72;;;22.30;66.40;;;;;;3149865;28;20051;-78
2021/06/26 06:30:32;;;;;;;;;;;22.30;66.50;;;;;;3150355;28;20076;-78
2021/06/26 06:32:04;;;;;;;5.65;2.67;;;22.30;66.50;;;;;;3150027;28;20403;-78
2021/06/26 06:33:35;;;;;;;5.90;3.20;;;22.30;66.50;;;;;;3150165;28;20053;-78
2021/06/26 06:35:07;;;;;;;5.40;2.60;;;22.30;66.50;;;;;;3149694;28;20048;-78
2021/06/26 06:36:39;;;;;;;3.88;2.80;;;22.20;66.50;;;;;;3148640;28;20063;-79
2021/06/26 06:38:09;;;;;;;5.93;2.85;;;22.20;66.50;;;;;;3150419;28;20044;-78
2021/06/26 06:39:41;;;;;;;6.10;2.80;;;22.20;66.60;;;;;;3150178;28;20040;-77
2021/06/26 06:41:12;;;;;;;3.08;2.58;;;22.30;66.60;;;;;;3151413;28;20425;-79
2021/06/26 06:42:44;;;;;;;5.05;2.80;;;22.30;66.60;;;;;;3150480;28;20076;-78
2021/06/26 06:44:17;;;;;;;6.05;2.72;;;22.30;66.50;;;;;;3151807;28;20122;-78
2021/06/26 06:45:48;;;;;;;;;;;22.30;67.10;;;;;;3151069;28;20055;-79
2021/06/26 06:47:20;;;;;;;3.53;2.80;;;22.30;66.50;;;;;;3151182;28;19924;-79
2021/06/26 06:48:52;;;;;;;3.92;2.95;;;22.30;66.50;;;;;;3151015;28;20076;-79
2021/06/26 06:50:23;;;;;;;7.13;2.95;;;22.20;66.40;;;;;;3151482;28;20076;-78
2021/06/26 06:51:54;;;;;;;6.78;2.85;;;22.20;66.40;;;;;;3149783;28;20052;-79
2021/06/26 06:53:25;;;;;;;3.42;2.70;;;22.30;66.40;;;;;;3140184;28;20049;-79
2021/06/26 06:54:57;;;;;;;3.00;2.50;;;22.30;66.50;;;;;;3137582;28;20419;-78
2021/06/26 06:56:28;;;;;;;4.63;2.72;;;22.30;66.40;;;;;;3137391;28;20107;-79
2021/06/26 06:58:00;;;;;;;7.55;2.50;;;22.20;66.50;;;;;;3138120;28;20083;-78
2021/06/26 06:59:32;;;;;;;3.42;2.50;;;22.30;66.50;;;;;;3137903;28;20164;-79
2021/06/26 07:01:04;;;;;;;3.53;2.40;;;22.20;66.40;;;;;;3138349;28;20491;-80
2021/06/26 07:02:34;;;;;;;5.95;3.03;;;22.30;66.50;;;;;;3138863;28;20049;-78
2021/06/26 07:04:06;;;;;;;3.17;2.63;;;22.30;66.50;;;;;;3138915;28;20048;-80
2021/06/26 07:05:38;;;;;;;2.70;2.50;;;22.30;66.30;;;;;;3138539;28;20095;-79
2021/06/26 07:07:09;;;;;;;3.00;2.40;;;22.20;66.40;;;;;;3138547;28;20418;-77
2021/06/26 07:08:40;;;;;;;4.63;2.65;;;22.30;66.40;;;;;;3141879;28;20096;-79
2021/06/26 07:10:12;;;;;;;3.72;2.90;;;22.30;66.30;;;;;;3149935;28;20312;-79
2021/06/26 07:11:44;;;;;;;3.92;2.60;;;22.20;66.40;;;;;;3150509;28;20049;-78
2021/06/26 07:13:15;;;;;;;3.58;2.90;;;22.30;66.20;;;;;;3150897;28;20052;-78
2021/06/26 07:14:48;;;;;;;4.78;2.97;;;22.30;66.10;;;;;;3150406;28;20072;-79
2021/06/26 07:16:19;;;;;;;;;;;22.30;65.60;;;;;;3150921;28;20076;-78
2021/06/26 07:17:50;;;;;;;9.10;2.72;;;22.30;65.30;;;;;;3151112;28;19924;-78
2021/06/26 07:19:22;;;;;;;9.15;3.03;;;22.30;65.30;;;;;;3151051;28;20051;-78
2021/06/26 07:20:52;;;;;;;7.38;3.17;;;22.30;64.90;;;;;;3150505;28;20048;-78
2021/06/26 07:22:24;;;;;;;6.45;3.20;;;22.40;64.80;;;;;;3150724;28;20048;-78
2021/06/26 07:23:55;;;;;;;6.43;2.90;;;22.40;64.70;;;;;;3149873;28;20080;-79
2021/06/26 07:25:27;;;;;;;8.98;3.08;;;22.40;64.60;;;;;;3149219;28;20447;-79
2021/06/26 07:26:58;;;;;;;8.57;3.22;;;22.40;64.30;;;;;;3149781;28;20048;-79
2021/06/26 07:28:30;;;;;;;14.73;4.05;;;22.40;64.20;;;;;;3149924;28;20049;-79
2021/06/26 07:30:03;;;;;;;33.50;4.00;;;22.50;64.10;;;;;;3150638;28;20403;-80
2021/06/26 07:31:34;;;;;;;31.88;5.00;;;22.50;63.80;;;;;;3151088;28;20048;-79
2021/06/26 07:33:05;;;;;;;28.48;4.60;;;22.60;63.80;;;;;;3149885;28;20419;-79
2021/06/26 07:34:37;;;;;;;28.58;3.88;;;22.60;63.70;;;;;;3150966;28;20052;-79
2021/06/26 07:36:09;;;;;;;28.75;4.72;;;22.70;63.70;;;;;;3150225;28;20514;-78
2021/06/26 07:37:40;;;;;;;32.72;5.05;;;22.70;63.30;;;;;;3150308;28;20453;-79
2021/06/26 07:39:12;;;;;;;29.20;5.00;;;22.90;62.00;;;;;;3149792;28;20048;-79
2021/06/26 07:40:43;;;;;;;18.30;5.20;;;23.00;61.00;;;;;;3150692;28;20055;-78
2021/06/26 07:42:15;;;;;;;11.23;5.68;;;23.00;59.40;;;;;;3146375;28;20053;-78
2021/06/26 07:43:47;;;;;;;13.25;5.60;;;22.90;58.40;;;;;;3138354;28;20131;-79
2021/06/26 07:45:20;;;;;;;15.35;6.38;;;22.90;58.40;;;;;;3144999;28;20483;-79
2021/06/26 07:46:51;;;;;;;;;;;22.90;57.70;;;;;;3151182;28;20072;-78
2021/06/26 07:48:23;;;;;;;8.85;5.93;;;22.90;58.20;;;;;;3170551;22;19931;-83
2021/06/26 07:49:54;;;;;;;13.48;5.95;;;22.90;57.40;;;;;;3156013;28;20082;-83
2021/06/26 07:51:26;;;;;;;7.40;6.28;;;22.90;57.10;;;;;;3159003;28;20049;-82
2021/06/26 07:52:58;;;;;;;8.70;6.50;;;23.10;56.40;;;;;;3160442;28;20111;-83
2021/06/26 07:54:28;;;;;;;8.57;6.75;;;23.20;56.00;;;;;;3158727;28;20049;-83
2021/06/26 07:56:00;;;;;;;9.43;6.20;;;23.30;56.60;;;;;;3159132;28;20059;-83
2021/06/26 07:57:32;;;;;;;8.63;6.70;;;23.40;56.80;;;;;;3158020;28;20033;-82
2021/06/26 07:59:03;;;;;;;9.60;6.80;;;23.60;56.10;;;;;;3146734;28;20053;-83